createdAt,value
2022-08-25T00:00:14.313Z,101552.91
2022-08-25T00:02:48.501Z,101554.75
2022-08-25T00:05:28.525Z,101558.72
2022-08-25T00:07:57.429Z,101567.25
2022-08-25T00:10:25.434Z,101563.88
2022-08-25T00:12:53.143Z,101563.47
2022-08-25T00:15:22.856Z,101563.41
2022-08-25T00:17:50.581Z,101564.66
2022-08-25T00:20:18.296Z,101564.22
2022-08-25T00:22:47.410Z,101564.00
2022-08-25T00:25:15.105Z,101560.00
2022-08-25T00:27:43.706Z,101557.94
2022-08-25T00:30:15.865Z,101566.63
2022-08-25T00:32:43.757Z,101561.63
2022-08-25T00:35:20.218Z,101565.13
2022-08-25T00:37:49.244Z,101570.28
2022-08-25T00:40:17.217Z,101574.44
2022-08-25T00:42:44.941Z,101580.22
2022-08-25T00:45:12.675Z,101573.56
2022-08-25T00:47:41.386Z,101568.75
2022-08-25T00:50:10.802Z,101566.63
2022-08-25T00:52:40.106Z,101566.00
2022-08-25T00:55:13.110Z,101562.00
2022-08-25T00:57:44.598Z,101567.41
2022-08-25T01:00:16.500Z,101572.16
2022-08-25T01:02:45.085Z,101577.13
2022-08-25T01:05:13.664Z,101574.63
2022-08-25T01:07:42.453Z,101576.66
2022-08-25T01:10:14.453Z,101577.06
2022-08-25T01:12:42.684Z,101573.75
2022-08-25T01:15:12.562Z,101581.22
2022-08-25T01:17:47.453Z,101575.81
2022-08-25T01:20:15.472Z,101567.06
2022-08-25T01:22:44.854Z,101578.88
2022-08-25T01:25:38.298Z,101575.56
2022-08-25T01:28:06.731Z,101579.28
2022-08-25T01:30:35.017Z,101576.13
2022-08-25T01:33:04.659Z,101581.94
2022-08-25T01:35:32.873Z,101575.72
2022-08-25T01:38:02.055Z,101576.06
2022-08-25T01:40:29.895Z,101573.78
2022-08-25T01:43:03.683Z,101570.44
2022-08-25T01:45:31.394Z,101572.69
2022-08-25T01:47:59.143Z,101577.25
2022-08-25T01:50:26.935Z,101570.19
2022-08-25T01:52:57.328Z,101570.75
2022-08-25T01:55:27.034Z,101564.91
2022-08-25T01:57:54.782Z,101560.75
2022-08-25T02:00:23.529Z,101560.28
2022-08-25T02:02:52.183Z,101562.56
2022-08-25T02:05:23.708Z,101566.28
2022-08-25T02:07:52.054Z,101565.00
2022-08-25T02:10:19.778Z,101563.31
2022-08-25T02:12:50.343Z,101553.72
2022-08-25T02:15:18.031Z,101560.78
2022-08-25T02:17:45.767Z,101566.19
2022-08-25T02:20:13.530Z,101561.16
2022-08-25T02:22:41.226Z,101562.00
2022-08-25T02:25:17.075Z,101578.19
2022-08-25T02:27:45.586Z,101570.28
2022-08-25T02:30:15.971Z,101569.47
2022-08-25T02:32:43.759Z,101566.13
2022-08-25T02:35:12.073Z,101568.19
2022-08-25T02:37:39.720Z,101565.66
2022-08-25T02:40:08.842Z,101574.16
2022-08-25T02:42:36.669Z,101584.31
2022-08-25T02:45:05.007Z,101573.88
2022-08-25T02:47:34.059Z,101571.56
2022-08-25T02:50:01.705Z,101570.94
2022-08-25T02:52:29.385Z,101574.84
2022-08-25T02:54:57.187Z,101575.88
2022-08-25T02:57:24.921Z,101581.47
2022-08-25T02:59:52.923Z,101567.06
2022-08-25T03:02:20.660Z,101577.66
2022-08-25T03:04:50.443Z,101563.31
2022-08-25T03:07:18.455Z,101572.44
2022-08-25T03:09:49.612Z,101573.69
2022-08-25T03:12:17.323Z,101560.38
2022-08-25T03:14:45.531Z,101561.59
2022-08-25T03:17:14.369Z,101565.31
2022-08-25T03:19:42.120Z,101559.28
2022-08-25T03:22:11.210Z,101552.22
2022-08-25T03:24:38.886Z,101550.72
2022-08-25T03:27:05.895Z,101549.88
2022-08-25T03:29:34.449Z,101550.72
2022-08-25T03:32:02.505Z,101539.91
2022-08-25T03:34:31.320Z,101538.25
2022-08-25T03:36:59.352Z,101539.09
2022-08-25T03:39:29.028Z,101538.25
2022-08-25T03:41:56.756Z,101536.59
2022-08-25T03:44:24.434Z,101533.25
2022-08-25T03:46:53.252Z,101528.22
2022-08-25T03:49:23.880Z,101534.19
2022-08-25T03:51:53.148Z,101528.34
2022-08-25T03:54:22.941Z,101525.19
2022-08-25T03:56:52.162Z,101521.00
2022-08-25T03:59:20.071Z,101531.63
2022-08-25T04:01:54.037Z,101525.91
2022-08-25T04:04:22.760Z,101529.44
2022-08-25T04:06:50.826Z,101524.44
2022-08-25T04:09:18.522Z,101530.03
2022-08-25T04:11:46.511Z,101530.59
2022-08-25T04:14:18.506Z,101520.19
2022-08-25T04:16:46.480Z,101521.19
2022-08-25T04:19:14.724Z,101515.78
2022-08-25T04:21:43.000Z,101516.00
2022-08-25T04:24:12.699Z,101510.78
2022-08-25T04:26:42.719Z,101509.97
2022-08-25T04:29:11.347Z,101509.13
2022-08-25T04:31:42.882Z,101507.47
2022-08-25T04:34:14.794Z,101502.06
2022-08-25T04:36:59.025Z,101497.50
2022-08-25T04:39:26.709Z,101501.03
2022-08-25T04:41:54.333Z,101508.28
2022-08-25T04:44:21.960Z,101501.03
2022-08-25T04:46:51.082Z,101497.50
2022-08-25T04:49:18.787Z,101498.53
2022-08-25T04:51:46.917Z,101510.16
2022-08-25T04:54:17.043Z,101504.75
2022-08-25T04:56:45.020Z,101500.41
2022-08-25T04:59:14.741Z,101503.25
2022-08-25T05:01:42.718Z,101497.88
2022-08-25T05:04:14.665Z,101509.13
2022-08-25T05:06:55.703Z,101509.97
2022-08-25T05:09:23.379Z,101519.06
2022-08-25T05:11:52.858Z,101511.63
2022-08-25T05:14:25.741Z,101511.81
2022-08-25T05:16:54.525Z,101507.06
2022-08-25T05:19:24.553Z,101515.78
2022-08-25T05:21:52.620Z,101512.09
2022-08-25T05:24:20.700Z,101513.78
2022-08-25T05:26:48.482Z,101513.78
2022-08-25T05:29:16.431Z,101514.41
2022-08-25T05:31:50.102Z,101506.31
2022-08-25T05:34:19.470Z,101507.53
2022-08-25T05:36:49.088Z,101505.28
2022-08-25T05:39:16.907Z,101498.22
2022-08-25T05:41:44.943Z,101498.88
2022-08-25T05:44:15.894Z,101496.19
2022-08-25T05:46:45.617Z,101496.84
2022-08-25T05:49:13.261Z,101487.72
2022-08-25T05:51:40.901Z,101495.22
2022-08-25T05:54:09.942Z,101504.16
2022-08-25T05:56:37.629Z,101499.59
2022-08-25T05:59:09.273Z,101498.59
2022-08-25T06:01:55.050Z,101497.41
2022-08-25T06:04:23.053Z,101502.19
2022-08-25T06:06:53.860Z,101506.00
2022-08-25T06:09:23.081Z,101506.66
2022-08-25T06:11:54.754Z,101492.72
2022-08-25T06:14:23.184Z,101499.22
2022-08-25T06:16:51.551Z,101506.72
2022-08-25T06:19:19.565Z,101499.47
2022-08-25T06:21:47.377Z,101503.00
2022-08-25T06:24:15.804Z,101496.84
2022-08-25T06:26:45.096Z,101501.66
2022-08-25T06:29:14.047Z,101496.53
2022-08-25T06:31:42.489Z,101505.91
2022-08-25T06:34:10.375Z,101496.16
2022-08-25T06:36:38.047Z,101507.84
2022-08-25T06:39:05.766Z,101519.06
2022-08-25T06:41:36.608Z,101512.47
2022-08-25T06:44:06.847Z,101515.81
2022-08-25T06:46:36.243Z,101509.38
2022-08-25T06:49:05.466Z,101511.31
2022-08-25T06:51:35.957Z,101517.97
2022-08-25T06:54:04.652Z,101516.56
2022-08-25T06:56:32.396Z,101519.72
2022-08-25T06:59:01.692Z,101512.94
2022-08-25T07:01:31.943Z,101513.19
2022-08-25T07:04:02.274Z,101507.19
2022-08-25T07:06:32.579Z,101504.09
2022-08-25T07:09:00.708Z,101501.63
2022-08-25T07:11:29.316Z,101504.97
2022-08-25T07:13:57.035Z,101495.44
2022-08-25T07:16:29.637Z,101509.44
2022-08-25T07:19:00.489Z,101501.59
2022-08-25T07:21:33.131Z,101510.97
2022-08-25T07:24:03.532Z,101506.41
2022-08-25T07:26:37.695Z,101520.81
2022-08-25T07:29:09.415Z,101506.09
2022-08-25T07:31:37.562Z,101513.22
2022-08-25T07:34:25.511Z,101512.44
2022-08-25T07:36:53.507Z,101507.88
2022-08-25T07:39:22.029Z,101513.13
2022-08-25T07:41:51.891Z,101521.25
2022-08-25T07:44:20.876Z,101511.72
2022-08-25T07:46:50.304Z,101506.34
2022-08-25T07:49:23.112Z,101504.28
2022-08-25T07:52:04.995Z,101509.72
2022-08-25T07:54:35.099Z,101513.31
2022-08-25T07:57:03.387Z,101507.94
2022-08-25T07:59:31.081Z,101508.75
2022-08-25T08:02:08.491Z,101498.59
2022-08-25T08:04:38.844Z,101504.66
2022-08-25T08:07:12.209Z,101494.44
2022-08-25T08:09:40.014Z,101494.03
2022-08-25T08:12:09.072Z,101488.00
2022-08-25T08:14:36.677Z,101486.97
2022-08-25T08:17:13.619Z,101487.00
2022-08-25T08:19:45.359Z,101487.63
2022-08-25T08:22:15.704Z,101486.97
2022-08-25T08:24:54.415Z,101486.13
2022-08-25T08:27:24.339Z,101479.28
2022-08-25T08:29:52.207Z,101486.97
2022-08-25T08:32:20.021Z,101478.19
2022-08-25T08:34:54.352Z,101485.69
2022-08-25T08:37:22.952Z,101484.41
2022-08-25T08:39:52.555Z,101476.50
2022-08-25T08:42:36.770Z,101478.16
2022-08-25T08:45:28.476Z,101485.22
2022-08-25T08:48:16.529Z,101487.25
2022-08-25T08:51:00.345Z,101481.81
2022-08-25T08:53:34.294Z,101483.44
2022-08-25T08:56:05.800Z,101471.53
2022-08-25T08:58:39.484Z,101475.88
2022-08-25T09:01:10.081Z,101466.63
2022-08-25T09:03:40.782Z,101467.09
2022-08-25T09:06:13.619Z,101454.94
2022-08-25T09:08:44.798Z,101458.00
2022-08-25T09:11:19.469Z,101454.00
2022-08-25T09:14:01.899Z,101445.59
2022-08-25T09:16:56.173Z,101444.69
2022-08-25T09:19:34.769Z,101444.69
2022-08-25T09:22:33.477Z,101444.25
2022-08-25T09:25:08.658Z,101435.25
2022-08-25T09:27:41.986Z,101431.63
2022-08-25T09:30:11.922Z,101434.50
2022-08-25T09:32:42.519Z,101430.13
2022-08-25T09:35:21.008Z,101423.94
2022-08-25T09:38:01.531Z,101422.81
2022-08-25T09:40:31.465Z,101426.28
2022-08-25T09:43:01.660Z,101422.44
2022-08-25T09:45:42.759Z,101411.50
2022-08-25T09:48:25.971Z,101410.97
2022-08-25T09:50:55.693Z,101404.28
2022-08-25T09:53:24.856Z,101402.38
2022-08-25T09:56:00.161Z,101401.72
2022-08-25T09:58:28.627Z,101394.94
2022-08-25T10:01:14.434Z,101397.13
2022-08-25T10:04:00.659Z,101387.81
2022-08-25T10:06:30.360Z,101379.19
2022-08-25T10:09:02.933Z,101388.41
2022-08-25T10:11:41.568Z,101378.75
2022-08-25T10:14:18.725Z,101370.47
2022-08-25T10:16:47.867Z,101368.13
2022-08-25T10:19:25.088Z,101367.06
2022-08-25T10:22:05.898Z,101360.94
2022-08-25T10:24:35.101Z,101361.75
2022-08-25T10:27:10.420Z,101368.16
2022-08-25T10:30:04.497Z,101359.81
2022-08-25T10:32:47.609Z,101365.16
2022-08-25T10:35:19.580Z,101368.13
2022-08-25T10:37:58.298Z,101357.72
2022-08-25T10:40:32.669Z,101352.66
2022-08-25T10:43:07.873Z,101356.56
2022-08-25T10:45:44.998Z,101348.91
2022-08-25T10:48:26.097Z,101345.94
2022-08-25T10:50:56.884Z,101348.34
2022-08-25T10:53:29.447Z,101339.09
2022-08-25T10:56:07.385Z,101332.69
2022-08-25T10:59:01.441Z,101336.13
2022-08-25T11:01:44.081Z,101334.34
2022-08-25T11:04:15.611Z,101333.53
2022-08-25T11:06:50.259Z,101318.38
2022-08-25T11:09:24.185Z,101316.81
2022-08-25T11:11:55.059Z,101322.59
2022-08-25T11:14:25.854Z,101315.03
2022-08-25T11:16:58.890Z,101324.50
2022-08-25T11:19:32.743Z,101322.47
2022-08-25T11:22:06.051Z,101321.28
2022-08-25T11:24:42.313Z,101316.06
2022-08-25T11:27:17.753Z,101313.69
2022-08-25T11:29:57.519Z,101306.28
2022-08-25T11:32:25.510Z,101305.66
2022-08-25T11:34:54.073Z,101306.13
2022-08-25T11:37:25.615Z,101305.94
2022-08-25T11:40:17.266Z,101302.63
2022-08-25T11:43:15.685Z,101303.56
2022-08-25T11:46:07.780Z,101303.00
2022-08-25T11:48:42.450Z,101309.47
2022-08-25T11:51:11.524Z,101298.66
2022-08-25T11:53:41.765Z,101303.38
2022-08-25T11:56:12.825Z,101297.03
2022-08-25T11:58:49.705Z,101294.56
2022-08-25T12:02:09.976Z,101292.97
2022-08-25T12:04:45.141Z,101294.97
2022-08-25T12:07:26.133Z,101286.63
2022-08-25T12:10:10.026Z,101284.47
2022-08-25T12:12:39.723Z,101273.94
2022-08-25T12:15:21.945Z,101281.06
2022-08-25T12:18:11.399Z,101278.03
2022-08-25T12:21:13.005Z,101263.72
2022-08-25T12:23:44.876Z,101265.44
2022-08-25T12:26:20.344Z,101266.34
2022-08-25T12:28:54.649Z,101260.88
2022-08-25T12:31:31.611Z,101265.47
2022-08-25T12:34:10.562Z,101257.28
2022-08-25T12:36:40.317Z,101252.69
2022-08-25T12:39:19.792Z,101246.09
2022-08-25T12:41:59.672Z,101246.41
2022-08-25T12:44:43.989Z,101246.00
2022-08-25T12:47:31.716Z,101244.91
2022-08-25T12:50:28.970Z,101246.81
2022-08-25T12:53:01.940Z,101251.44
2022-08-25T12:55:29.946Z,101239.03
2022-08-25T12:58:00.852Z,101240.19
2022-08-25T13:00:30.353Z,101236.38
2022-08-25T13:03:26.999Z,101233.63
2022-08-25T13:06:11.342Z,101241.31
2022-08-25T13:08:56.302Z,101237.00
2022-08-25T13:11:28.292Z,101240.63
2022-08-25T13:14:05.390Z,101226.91
2022-08-25T13:16:33.822Z,101228.09
2022-08-25T13:19:06.871Z,101218.78
2022-08-25T13:21:38.922Z,101225.44
2022-08-25T13:24:08.522Z,101228.59
2022-08-25T13:26:48.226Z,101218.84
2022-08-25T13:29:20.876Z,101210.66
2022-08-25T13:31:54.912Z,101209.88
2022-08-25T13:34:34.458Z,101211.38
2022-08-25T13:37:24.879Z,101207.28
2022-08-25T13:39:56.506Z,101207.34
2022-08-25T13:42:27.444Z,101201.34
2022-08-25T13:44:56.945Z,101204.22
2022-08-25T13:47:34.241Z,101202.28
2022-08-25T13:50:22.789Z,101202.13
2022-08-25T13:52:55.924Z,101201.09
2022-08-25T13:55:27.784Z,101199.13
2022-08-25T13:57:57.873Z,101195.91
2022-08-25T14:00:32.665Z,101194.38
2022-08-25T14:03:01.171Z,101193.69
2022-08-25T14:05:38.421Z,101180.88
2022-08-25T14:08:23.602Z,101192.03
2022-08-25T14:11:03.797Z,101183.69
2022-08-25T14:13:33.499Z,101184.50
2022-08-25T14:16:11.104Z,101177.97
2022-08-25T14:18:39.444Z,101173.47
2022-08-25T14:21:12.022Z,101170.00
2022-08-25T14:23:40.298Z,101164.06
2022-08-25T14:26:07.950Z,101173.97
2022-08-25T14:28:35.651Z,101168.56
2022-08-25T14:31:08.242Z,101162.50
2022-08-25T14:33:38.863Z,101167.41
2022-08-25T14:36:08.221Z,101166.84
2022-08-25T14:38:38.938Z,101156.41
2022-08-25T14:43:41.491Z,101161.47
2022-08-25T14:46:19.546Z,101154.63
2022-08-25T14:48:49.055Z,101151.41
2022-08-25T14:51:17.469Z,101147.56
2022-08-25T14:53:46.523Z,101147.56
2022-08-25T14:56:14.373Z,101150.03
2022-08-25T14:58:51.596Z,101144.53
2022-08-25T15:01:29.323Z,101152.09
2022-08-25T15:04:01.442Z,101137.53
2022-08-25T15:06:29.711Z,101135.47
2022-08-25T15:09:11.541Z,101134.66
2022-08-25T15:11:42.277Z,101131.63
2022-08-25T15:14:11.081Z,101131.34
2022-08-25T15:16:42.946Z,101137.94
2022-08-25T15:19:14.443Z,101135.81
2022-08-25T15:21:43.990Z,101129.81
2022-08-25T15:24:17.535Z,101128.47
2022-08-25T15:29:23.269Z,101125.50
2022-08-25T15:31:51.353Z,101115.88
2022-08-25T15:34:19.297Z,101127.34
2022-08-25T15:36:47.524Z,101120.22
2022-08-25T15:39:18.069Z,101115.22
2022-08-25T15:41:48.236Z,101121.78
2022-08-25T15:44:17.575Z,101110.31
2022-08-25T15:46:47.176Z,101117.41
2022-08-25T15:49:23.081Z,101108.38
2022-08-25T15:51:51.362Z,101101.53
2022-08-25T15:54:20.761Z,101102.88
2022-08-25T15:56:48.499Z,101103.69
2022-08-25T15:59:16.448Z,101098.22
2022-08-25T16:01:44.650Z,101099.56
2022-08-25T16:04:14.428Z,101092.19
2022-08-25T16:06:42.181Z,101096.03
2022-08-25T16:09:10.052Z,101097.59
2022-08-25T16:11:39.103Z,101094.84
2022-08-25T16:14:07.123Z,101105.47
2022-08-25T16:16:34.906Z,101109.25
2022-08-25T16:19:04.769Z,101103.72
2022-08-25T16:21:35.455Z,101093.00
2022-08-25T16:24:07.826Z,101101.97
2022-08-25T16:26:37.657Z,101090.66
2022-08-25T16:29:15.539Z,101096.91
2022-08-25T16:31:44.430Z,101090.53
2022-08-25T16:34:12.250Z,101092.66
2022-08-25T16:36:40.038Z,101093.09
2022-08-25T16:39:09.924Z,101093.03
2022-08-25T16:41:37.765Z,101093.56
2022-08-25T16:44:11.008Z,101086.38
2022-08-25T16:46:41.815Z,101092.66
2022-08-25T16:49:13.392Z,101095.09
2022-08-25T16:51:41.587Z,101096.19
2022-08-25T16:54:29.639Z,101092.28
2022-08-25T16:56:57.468Z,101088.97
2022-08-25T16:59:26.178Z,101080.22
2022-08-25T17:01:55.608Z,101082.88
2022-08-25T17:04:29.500Z,101089.91
2022-08-25T17:07:00.366Z,101086.84
2022-08-25T17:09:29.760Z,101085.69
2022-08-25T17:11:57.740Z,101086.22
2022-08-25T17:14:25.582Z,101087.56
2022-08-25T17:16:54.969Z,101077.66
2022-08-25T17:19:24.916Z,101077.56
2022-08-25T17:21:54.434Z,101087.41
2022-08-25T17:24:29.537Z,101091.72
2022-08-25T17:26:59.618Z,101090.31
2022-08-25T17:29:29.148Z,101092.72
2022-08-25T17:31:57.518Z,101087.78
2022-08-25T17:34:27.072Z,101087.44
2022-08-25T17:36:55.620Z,101087.91
2022-08-25T17:39:24.227Z,101091.13
2022-08-25T17:41:52.958Z,101092.72
2022-08-25T17:44:20.925Z,101099.47
2022-08-25T17:46:49.294Z,101095.88
2022-08-25T17:49:17.239Z,101093.06
2022-08-25T17:51:46.267Z,101095.69
2022-08-25T17:54:14.095Z,101089.56
2022-08-25T17:56:42.440Z,101101.81
2022-08-25T17:59:11.746Z,101095.22
2022-08-25T18:01:41.166Z,101103.56
2022-08-25T18:04:17.693Z,101102.13
2022-08-25T18:06:47.581Z,101100.41
2022-08-25T18:09:15.326Z,101098.94
2022-08-25T18:11:43.088Z,101104.56
2022-08-25T18:14:11.245Z,101100.09
2022-08-25T18:16:39.095Z,101110.06
2022-08-25T18:19:09.760Z,101098.25
2022-08-25T18:21:38.041Z,101108.00
2022-08-25T18:24:07.949Z,101100.53
2022-08-25T18:26:35.837Z,101105.66
2022-08-25T18:29:03.552Z,101102.00
2022-08-25T18:31:31.325Z,101100.50
2022-08-25T18:33:59.959Z,101108.09
2022-08-25T18:36:28.258Z,101112.56
2022-08-25T18:39:13.768Z,101112.47
2022-08-25T18:41:44.901Z,101119.69
2022-08-25T18:44:15.412Z,101117.72
2022-08-25T18:46:43.532Z,101112.41
2022-08-25T18:49:15.676Z,101119.38
2022-08-25T18:51:44.734Z,101125.81
2022-08-25T18:54:23.005Z,101121.88
2022-08-25T18:56:53.216Z,101123.66
2022-08-25T18:59:23.664Z,101114.59
2022-08-25T19:01:52.671Z,101125.09
2022-08-25T19:04:20.676Z,101121.88
2022-08-25T19:06:56.185Z,101129.91
2022-08-25T19:09:23.921Z,101129.81
2022-08-25T19:11:54.710Z,101118.00
2022-08-25T19:14:23.118Z,101122.47
2022-08-25T19:16:54.377Z,101123.44
2022-08-25T19:19:22.098Z,101119.75
2022-08-25T19:21:50.854Z,101116.69
2022-08-25T19:24:19.246Z,101118.47
2022-08-25T19:26:50.410Z,101115.03
2022-08-25T19:29:24.535Z,101119.22
2022-08-25T19:31:52.252Z,101124.31
2022-08-25T19:34:25.307Z,101122.03
2022-08-25T19:36:56.299Z,101115.44
2022-08-25T19:39:24.294Z,101123.84
2022-08-25T19:41:52.574Z,101123.44
2022-08-25T19:44:21.361Z,101118.94
2022-08-25T19:46:51.337Z,101124.25
2022-08-25T19:49:22.770Z,101126.84
2022-08-25T19:51:52.386Z,101129.41
2022-08-25T19:54:24.503Z,101129.28
2022-08-25T19:56:55.002Z,101127.72
2022-08-25T19:59:24.602Z,101125.69
2022-08-25T20:01:53.824Z,101131.59
2022-08-25T20:04:24.674Z,101131.19
2022-08-25T20:06:52.689Z,101132.91
2022-08-25T20:09:39.259Z,101124.88
2022-08-25T20:12:10.335Z,101128.28
2022-08-25T20:14:38.490Z,101116.75
2022-08-25T20:17:14.486Z,101134.03
2022-08-25T20:19:52.382Z,101131.53
2022-08-25T20:22:24.985Z,101129.50
2022-08-25T20:24:56.143Z,101124.75
2022-08-25T20:27:29.010Z,101128.75
2022-08-25T20:29:56.894Z,101130.88
2022-08-25T20:32:26.162Z,101128.00
2022-08-25T20:34:56.928Z,101130.09
2022-08-25T20:37:25.716Z,101133.50
2022-08-25T20:39:53.510Z,101129.97
2022-08-25T20:42:21.175Z,101131.28
2022-08-25T20:44:48.877Z,101137.59
2022-08-25T20:47:20.400Z,101121.63
2022-08-25T20:49:50.296Z,101127.03
2022-08-25T20:52:18.561Z,101129.97
2022-08-25T20:54:46.948Z,101136.69
2022-08-25T20:57:17.367Z,101139.25
2022-08-25T20:59:45.101Z,101133.66
2022-08-25T21:02:13.961Z,101139.53
2022-08-25T21:04:48.946Z,101131.84
2022-08-25T21:07:19.730Z,101127.91
2022-08-25T21:09:48.743Z,101130.25
2022-08-25T21:12:16.817Z,101137.75
2022-08-25T21:14:44.589Z,101128.19
2022-08-25T21:17:13.612Z,101134.06
2022-08-25T21:19:41.778Z,101130.72
2022-08-25T21:22:10.836Z,101120.81
2022-08-25T21:24:40.009Z,101140.38
2022-08-25T21:27:08.259Z,101135.38
2022-08-25T21:29:36.367Z,101136.84
2022-08-25T21:32:04.518Z,101135.44
2022-08-25T21:34:32.330Z,101134.19
2022-08-25T21:37:00.359Z,101124.00
2022-08-25T21:39:32.073Z,101130.09
2022-08-25T21:42:01.740Z,101126.38
2022-08-25T21:44:30.595Z,101126.84
2022-08-25T21:46:58.317Z,101126.44
2022-08-25T21:49:26.156Z,101134.56
2022-08-25T21:52:04.350Z,101126.66
2022-08-25T21:54:32.741Z,101127.09
2022-08-25T21:57:04.813Z,101122.56
2022-08-25T21:59:34.758Z,101125.69
2022-08-25T22:02:03.858Z,101134.84
2022-08-25T22:04:32.580Z,101137.19
2022-08-25T22:07:00.513Z,101132.41
2022-08-25T22:09:29.197Z,101134.13
2022-08-25T22:11:57.154Z,101124.53
2022-08-25T22:14:30.442Z,101128.50
2022-08-25T22:16:58.093Z,101122.66
2022-08-25T22:19:26.898Z,101120.59
2022-08-25T22:21:54.620Z,101123.31
2022-08-25T22:24:22.393Z,101121.66
2022-08-25T22:26:50.822Z,101125.81
2022-08-25T22:29:23.627Z,101124.16
2022-08-25T22:31:59.991Z,101129.38
2022-08-25T22:34:32.335Z,101159.63
2022-08-25T22:37:00.622Z,101164.69
2022-08-25T22:39:29.190Z,101165.59
2022-08-25T22:41:56.813Z,101167.44
2022-08-25T22:44:25.069Z,101168.50
2022-08-25T22:46:54.383Z,101168.31
2022-08-25T22:49:22.109Z,101166.66
2022-08-25T22:51:49.927Z,101163.97
2022-08-25T22:54:18.661Z,101174.78
2022-08-25T22:56:46.368Z,101186.59
2022-08-25T22:59:15.375Z,101189.34
2022-08-25T23:01:44.885Z,101190.56
2022-08-25T23:04:14.829Z,101196.63
2022-08-25T23:06:42.957Z,101189.13
2022-08-25T23:09:11.263Z,101190.59
2022-08-25T23:11:39.428Z,101193.06
2022-08-25T23:14:10.233Z,101194.91
2022-08-25T23:16:38.325Z,101190.13
2022-08-25T23:19:06.159Z,101186.38
2022-08-25T23:21:53.809Z,101190.13
2022-08-25T23:24:29.175Z,101193.41
2022-08-25T23:26:58.180Z,101191.16
2022-08-25T23:29:25.793Z,101187.16
2022-08-25T23:31:53.729Z,101188.84
2022-08-25T23:34:21.714Z,101191.28
2022-08-25T23:36:51.327Z,101187.16
2022-08-25T23:39:18.969Z,101187.53
2022-08-25T23:41:49.677Z,101183.97
2022-08-25T23:44:17.829Z,101182.53
2022-08-25T23:46:47.310Z,101176.72
2022-08-25T23:49:18.554Z,101180.84
2022-08-25T23:51:48.649Z,101188.28
2022-08-25T23:54:20.076Z,101181.63
2022-08-25T23:56:51.929Z,101184.53
2022-08-25T23:59:24.229Z,101183.66
